sensor_id;sensor_type;location;lat;lon;timestamp;pressure;altitude;pressure_sealevel;temperature;humidity
69239;BME280;56349;51.816;-0.026;2023-02-22T00:00:39;100647.70;;;22.95;33.28
69239;BME280;56349;51.816;-0.026;2023-02-22T00:03:05;100643.10;;;23.01;33.47
69239;BME280;56349;51.816;-0.026;2023-02-22T00:05:30;100639.39;;;22.79;33.72
69239;BME280;56349;51.816;-0.026;2023-02-22T00:07:56;100637.58;;;22.58;33.96
69239;BME280;56349;51.816;-0.026;2023-02-22T00:10:22;100640.84;;;22.39;34.20
69239;BME280;56349;51.816;-0.026;2023-02-22T00:12:47;100640.17;;;22.21;34.41
69239;BME280;56349;51.816;-0.026;2023-02-22T00:15:13;100638.88;;;22.04;34.62
69239;BME280;56349;51.816;-0.026;2023-02-22T00:17:38;100643.53;;;22.15;34.83
69239;BME280;56349;51.816;-0.026;2023-02-22T00:20:05;100645.32;;;22.21;35.03
69239;BME280;56349;51.816;-0.026;2023-02-22T00:22:30;100643.75;;;21.87;35.21
69239;BME280;56349;51.816;-0.026;2023-02-22T00:24:56;100636.41;;;21.97;35.37
69239;BME280;56349;51.816;-0.026;2023-02-22T00:27:21;100635.25;;;21.85;35.51
69239;BME280;56349;51.816;-0.026;2023-02-22T00:29:48;100633.27;;;21.73;35.66
69239;BME280;56349;51.816;-0.026;2023-02-22T00:32:13;100632.84;;;21.63;35.80
69239;BME280;56349;51.816;-0.026;2023-02-22T00:34:39;100635.71;;;22.00;35.95
69239;BME280;56349;51.816;-0.026;2023-02-22T00:37:05;100638.96;;;21.39;36.11
69239;BME280;56349;51.816;-0.026;2023-02-22T00:39:30;100631.48;;;21.29;36.23
69239;BME280;56349;51.816;-0.026;2023-02-22T00:41:56;100641.44;;;21.43;36.35
69239;BME280;56349;51.816;-0.026;2023-02-22T00:44:21;100634.06;;;21.35;36.46
69239;BME280;56349;51.816;-0.026;2023-02-22T00:46:47;100649.56;;;21.53;36.56
69239;BME280;56349;51.816;-0.026;2023-02-22T00:49:13;100652.89;;;21.17;36.71
69239;BME280;56349;51.816;-0.026;2023-02-22T00:51:39;100643.64;;;20.86;36.83
69239;BME280;56349;51.816;-0.026;2023-02-22T00:54:05;100648.51;;;21.26;36.94
69239;BME280;56349;51.816;-0.026;2023-02-22T00:56:32;100635.03;;;21.18;37.04
69239;BME280;56349;51.816;-0.026;2023-02-22T00:58:57;100626.88;;;21.11;37.14
69239;BME280;56349;51.816;-0.026;2023-02-22T01:01:23;100623.75;;;21.04;37.23
69239;BME280;56349;51.816;-0.026;2023-02-22T01:03:49;100617.99;;;20.72;37.32
69239;BME280;56349;51.816;-0.026;2023-02-22T01:06:15;100624.00;;;20.93;37.38
69239;BME280;56349;51.816;-0.026;2023-02-22T01:08:43;100625.81;;;20.60;37.46
69239;BME280;56349;51.816;-0.026;2023-02-22T01:11:07;100614.47;;;20.83;37.52
69239;BME280;56349;51.816;-0.026;2023-02-22T01:13:33;100620.40;;;20.77;37.58
69239;BME280;56349;51.816;-0.026;2023-02-22T01:15:59;100621.43;;;20.71;37.66
69239;BME280;56349;51.816;-0.026;2023-02-22T01:18:26;100615.26;;;20.66;37.72
69239;BME280;56349;51.816;-0.026;2023-02-22T01:20:51;100614.09;;;20.61;37.79
69239;BME280;56349;51.816;-0.026;2023-02-22T01:23:17;100607.13;;;20.55;37.86
69239;BME280;56349;51.816;-0.026;2023-02-22T01:25:43;100607.49;;;20.50;37.94
69239;BME280;56349;51.816;-0.026;2023-02-22T01:28:08;100606.41;;;20.43;38.02
69239;BME280;56349;51.816;-0.026;2023-02-22T01:30:34;100607.37;;;20.36;38.09
69239;BME280;56349;51.816;-0.026;2023-02-22T01:32:59;100597.73;;;20.76;38.16
69239;BME280;56349;51.816;-0.026;2023-02-22T01:35:27;100598.60;;;20.28;38.22
69239;BME280;56349;51.816;-0.026;2023-02-22T01:37:50;100601.10;;;20.47;38.26
69239;BME280;56349;51.816;-0.026;2023-02-22T01:40:17;100599.50;;;20.19;38.31
69239;BME280;56349;51.816;-0.026;2023-02-22T01:42:40;100599.04;;;20.60;38.35
69239;BME280;56349;51.816;-0.026;2023-02-22T01:47:31;100599.94;;;20.51;38.46
69239;BME280;56349;51.816;-0.026;2023-02-22T01:49:57;100602.26;;;20.04;38.50
69239;BME280;56349;51.816;-0.026;2023-02-22T01:52:24;100604.80;;;20.00;38.53
69239;BME280;56349;51.816;-0.026;2023-02-22T01:54:53;100607.42;;;19.98;38.57
69239;BME280;56349;51.816;-0.026;2023-02-22T01:57:20;100606.05;;;20.39;38.60
69239;BME280;56349;51.816;-0.026;2023-02-22T01:59:45;100608.22;;;20.34;38.65
69239;BME280;56349;51.816;-0.026;2023-02-22T02:02:06;100601.13;;;19.87;38.69
69239;BME280;56349;51.816;-0.026;2023-02-22T02:04:32;100599.71;;;20.06;38.70
69239;BME280;56349;51.816;-0.026;2023-02-22T02:07:00;100602.98;;;20.26;38.74
69239;BME280;56349;51.816;-0.026;2023-02-22T02:09:30;100599.34;;;20.00;38.77
69239;BME280;56349;51.816;-0.026;2023-02-22T02:11:49;100599.21;;;20.20;38.79
69239;BME280;56349;51.816;-0.026;2023-02-22T02:14:14;100601.18;;;20.17;38.82
69239;BME280;56349;51.816;-0.026;2023-02-22T02:16:41;100596.82;;;19.69;38.86
69239;BME280;56349;51.816;-0.026;2023-02-22T02:19:10;100595.08;;;20.13;38.86
69239;BME280;56349;51.816;-0.026;2023-02-22T02:21:40;100591.15;;;20.11;38.88
69239;BME280;56349;51.816;-0.026;2023-02-22T02:24:12;100591.11;;;20.09;38.89
69239;BME280;56349;51.816;-0.026;2023-02-22T02:33:42;100577.34;;;19.98;38.98
69239;BME280;56349;51.816;-0.026;2023-02-22T02:36:09;100577.01;;;19.96;39.01
69239;BME280;56349;51.816;-0.026;2023-02-22T02:38:35;100569.92;;;19.71;39.03
69239;BME280;56349;51.816;-0.026;2023-02-22T02:41:02;100563.83;;;19.91;39.04
69239;BME280;56349;51.816;-0.026;2023-02-22T02:43:28;100560.09;;;19.90;39.04
69239;BME280;56349;51.816;-0.026;2023-02-22T02:45:52;100555.99;;;19.87;39.05
69239;BME280;56349;51.816;-0.026;2023-02-22T02:48:14;100553.03;;;19.86;39.05
69239;BME280;56349;51.816;-0.026;2023-02-22T02:50:43;100551.02;;;19.61;39.08
69239;BME280;56349;51.816;-0.026;2023-02-22T02:53:05;100549.56;;;19.81;39.08
69239;BME280;56349;51.816;-0.026;2023-02-22T02:55:30;100548.06;;;19.79;39.11
69239;BME280;56349;51.816;-0.026;2023-02-22T02:57:55;100553.16;;;19.76;39.13
69239;BME280;56349;51.816;-0.026;2023-02-22T03:00:24;100548.00;;;19.73;39.15
69239;BME280;56349;51.816;-0.026;2023-02-22T03:02:55;100544.28;;;19.70;39.18
69239;BME280;56349;51.816;-0.026;2023-02-22T03:05:24;100545.38;;;19.46;39.20
69239;BME280;56349;51.816;-0.026;2023-02-22T03:07:44;100546.37;;;19.67;39.21
69239;BME280;56349;51.816;-0.026;2023-02-22T03:10:17;100542.81;;;19.65;39.21
69239;BME280;56349;51.816;-0.026;2023-02-22T03:12:37;100541.89;;;19.40;39.23
69239;BME280;56349;51.816;-0.026;2023-02-22T03:15:04;100541.65;;;19.60;39.25
69239;BME280;56349;51.816;-0.026;2023-02-22T03:17:24;100544.16;;;19.60;39.25
69239;BME280;56349;51.816;-0.026;2023-02-22T03:19:48;100543.69;;;19.58;39.25
69239;BME280;56349;51.816;-0.026;2023-02-22T03:22:13;100542.15;;;19.56;39.26
69239;BME280;56349;51.816;-0.026;2023-02-22T03:24:43;100533.60;;;19.55;39.28
69239;BME280;56349;51.816;-0.026;2023-02-22T03:27:05;100526.94;;;19.53;39.28
69239;BME280;56349;51.816;-0.026;2023-02-22T03:29:30;100530.34;;;19.78;39.30
69239;BME280;56349;51.816;-0.026;2023-02-22T03:31:56;100528.03;;;19.77;39.30
69239;BME280;56349;51.816;-0.026;2023-02-22T03:34:22;100527.03;;;19.50;39.30
69239;BME280;56349;51.816;-0.026;2023-02-22T03:36:49;100522.75;;;19.48;39.29
69239;BME280;56349;51.816;-0.026;2023-02-22T03:39:13;100516.29;;;19.47;39.28
69239;BME280;56349;51.816;-0.026;2023-02-22T03:41:36;100509.65;;;19.45;39.29
69239;BME280;56349;51.816;-0.026;2023-02-22T03:44:03;100501.88;;;19.41;39.31
69239;BME280;56349;51.816;-0.026;2023-02-22T03:46:26;100495.25;;;19.38;39.34
69239;BME280;56349;51.816;-0.026;2023-02-22T03:48:54;100493.02;;;19.36;39.34
69239;BME280;56349;51.816;-0.026;2023-02-22T03:51:17;100489.65;;;19.34;39.37
69239;BME280;56349;51.816;-0.026;2023-02-22T03:53:43;100487.56;;;19.59;39.40
69239;BME280;56349;51.816;-0.026;2023-02-22T03:56:13;100483.02;;;19.31;39.39
69239;BME280;56349;51.816;-0.026;2023-02-22T03:58:36;100481.01;;;19.29;39.38
69239;BME280;56349;51.816;-0.026;2023-02-22T04:01:01;100483.18;;;19.28;39.39
69239;BME280;56349;51.816;-0.026;2023-02-22T04:03:27;100481.71;;;19.27;39.39
69239;BME280;56349;51.816;-0.026;2023-02-22T04:05:53;100478.50;;;19.53;39.38
69239;BME280;56349;51.816;-0.026;2023-02-22T04:08:19;100473.07;;;19.52;39.37
69239;BME280;56349;51.816;-0.026;2023-02-22T04:10:45;100475.03;;;19.24;39.38
69239;BME280;56349;51.816;-0.026;2023-02-22T04:13:11;100476.40;;;19.21;39.40
69239;BME280;56349;51.816;-0.026;2023-02-22T04:15:36;100472.51;;;19.44;39.42
69239;BME280;56349;51.816;-0.026;2023-02-22T04:18:03;100474.63;;;19.42;39.44
69239;BME280;56349;51.816;-0.026;2023-02-22T04:20:28;100473.85;;;19.13;39.45
69239;BME280;56349;51.816;-0.026;2023-02-22T04:22:55;100471.05;;;19.37;39.46
69239;BME280;56349;51.816;-0.026;2023-02-22T04:25:20;100463.10;;;19.37;39.45
69239;BME280;56349;51.816;-0.026;2023-02-22T04:27:45;100457.85;;;19.37;39.43
69239;BME280;56349;51.816;-0.026;2023-02-22T04:30:11;100458.46;;;19.13;39.41
69239;BME280;56349;51.816;-0.026;2023-02-22T04:32:36;100460.56;;;19.39;39.49
69239;BME280;56349;51.816;-0.026;2023-02-22T04:35:03;100461.13;;;19.19;39.52
69239;BME280;56349;51.816;-0.026;2023-02-22T04:37:28;100458.12;;;19.59;39.47
69239;BME280;56349;51.816;-0.026;2023-02-22T04:39:54;100460.79;;;19.05;39.36
69239;BME280;56349;51.816;-0.026;2023-02-22T04:42:20;100455.71;;;19.70;39.18
69239;BME280;56349;51.816;-0.026;2023-02-22T04:44:46;100458.14;;;19.93;38.95
69239;BME280;56349;51.816;-0.026;2023-02-22T04:47:12;100455.03;;;19.92;38.69
69239;BME280;56349;51.816;-0.026;2023-02-22T04:49:38;100458.88;;;20.10;38.38
69239;BME280;56349;51.816;-0.026;2023-02-22T04:52:03;100453.70;;;20.03;38.10
69239;BME280;56349;51.816;-0.026;2023-02-22T04:54:29;100445.39;;;20.14;37.86
69239;BME280;56349;51.816;-0.026;2023-02-22T04:56:55;100446.06;;;20.42;37.68
69239;BME280;56349;51.816;-0.026;2023-02-22T04:59:21;100443.83;;;20.22;37.55
69239;BME280;56349;51.816;-0.026;2023-02-22T05:01:47;100444.26;;;20.22;37.46
69239;BME280;56349;51.816;-0.026;2023-02-22T05:04:13;100445.71;;;20.18;37.39
69239;BME280;56349;51.816;-0.026;2023-02-22T05:06:39;100448.05;;;20.16;37.36
69239;BME280;56349;51.816;-0.026;2023-02-22T05:09:05;100452.36;;;20.11;37.44
69239;BME280;56349;51.816;-0.026;2023-02-22T05:11:31;100450.10;;;20.06;37.57
69239;BME280;56349;51.816;-0.026;2023-02-22T05:13:57;100449.40;;;20.01;37.71
69239;BME280;56349;51.816;-0.026;2023-02-22T05:16:23;100457.29;;;19.98;37.89
69239;BME280;56349;51.816;-0.026;2023-02-22T05:18:49;100460.80;;;20.17;38.09
69239;BME280;56349;51.816;-0.026;2023-02-22T05:21:15;100461.82;;;20.36;38.29
69239;BME280;56349;51.816;-0.026;2023-02-22T05:23:41;100459.05;;;19.92;38.48
69239;BME280;56349;51.816;-0.026;2023-02-22T05:26:07;100458.70;;;20.14;38.68
69239;BME280;56349;51.816;-0.026;2023-02-22T05:28:33;100451.27;;;20.14;38.87
69239;BME280;56349;51.816;-0.026;2023-02-22T05:30:59;100450.01;;;20.15;39.05
69239;BME280;56349;51.816;-0.026;2023-02-22T05:33:25;100451.02;;;20.17;39.21
69239;BME280;56349;51.816;-0.026;2023-02-22T05:35:51;100450.14;;;20.20;39.35
69239;BME280;56349;51.816;-0.026;2023-02-22T05:38:17;100444.29;;;20.46;39.45
69239;BME280;56349;51.816;-0.026;2023-02-22T05:40:43;100433.56;;;20.03;39.55
69239;BME280;56349;51.816;-0.026;2023-02-22T05:43:09;100422.44;;;20.51;39.65
69239;BME280;56349;51.816;-0.026;2023-02-22T05:45:34;100420.29;;;20.11;39.71
69239;BME280;56349;51.816;-0.026;2023-02-22T05:48:01;100422.97;;;20.39;39.79
69239;BME280;56349;51.816;-0.026;2023-02-22T05:50:26;100425.68;;;20.22;39.85
69239;BME280;56349;51.816;-0.026;2023-02-22T05:52:53;100424.05;;;20.48;39.90
69239;BME280;56349;51.816;-0.026;2023-02-22T05:55:21;100421.76;;;20.52;39.96
69239;BME280;56349;51.816;-0.026;2023-02-22T05:57:43;100420.85;;;20.55;40.01
69239;BME280;56349;51.816;-0.026;2023-02-22T06:00:14;100419.03;;;20.81;40.06
69239;BME280;56349;51.816;-0.026;2023-02-22T06:02:34;100423.40;;;20.64;40.10
69239;BME280;56349;51.816;-0.026;2023-02-22T06:05:00;100428.93;;;20.48;40.11
69239;BME280;56349;51.816;-0.026;2023-02-22T06:07:26;100429.96;;;20.53;40.11
69239;BME280;56349;51.816;-0.026;2023-02-22T06:09:52;100429.32;;;20.58;40.14
69239;BME280;56349;51.816;-0.026;2023-02-22T06:12:18;100430.68;;;20.61;40.14
69239;BME280;56349;51.816;-0.026;2023-02-22T06:14:43;100426.03;;;20.65;40.14
69239;BME280;56349;51.816;-0.026;2023-02-22T06:17:09;100426.68;;;20.71;40.11
69239;BME280;56349;51.816;-0.026;2023-02-22T06:19:35;100421.15;;;20.51;40.07
69239;BME280;56349;51.816;-0.026;2023-02-22T06:22:01;100421.33;;;20.80;40.07
69239;BME280;56349;51.816;-0.026;2023-02-22T06:24:27;100418.95;;;20.82;40.07
69239;BME280;56349;51.816;-0.026;2023-02-22T06:26:54;100422.99;;;20.91;40.00
69239;BME280;56349;51.816;-0.026;2023-02-22T06:29:18;100420.96;;;20.95;39.94
69239;BME280;56349;51.816;-0.026;2023-02-22T06:31:44;100419.30;;;20.96;39.90
69239;BME280;56349;51.816;-0.026;2023-02-22T06:34:10;100413.11;;;20.97;39.83
69239;BME280;56349;51.816;-0.026;2023-02-22T06:36:36;100413.11;;;20.98;39.75
69239;BME280;56349;51.816;-0.026;2023-02-22T06:39:02;100416.55;;;21.01;39.65
69239;BME280;56349;51.816;-0.026;2023-02-22T06:41:28;100417.54;;;21.03;39.52
69239;BME280;56349;51.816;-0.026;2023-02-22T06:43:54;100419.10;;;21.06;39.40
69239;BME280;56349;51.816;-0.026;2023-02-22T06:46:20;100419.14;;;21.07;39.30
69239;BME280;56349;51.816;-0.026;2023-02-22T06:48:46;100423.99;;;21.06;39.20
69239;BME280;56349;51.816;-0.026;2023-02-22T06:51:12;100426.15;;;20.78;39.12
69239;BME280;56349;51.816;-0.026;2023-02-22T06:53:38;100431.88;;;21.03;39.04
69239;BME280;56349;51.816;-0.026;2023-02-22T06:56:05;100432.28;;;20.83;38.86
69239;BME280;56349;51.816;-0.026;2023-02-22T06:58:29;100432.90;;;21.09;38.77
69239;BME280;56349;51.816;-0.026;2023-02-22T07:00:55;100437.15;;;21.06;38.74
69239;BME280;56349;51.816;-0.026;2023-02-22T07:03:22;100438.44;;;21.03;38.68
69239;BME280;56349;51.816;-0.026;2023-02-22T07:05:47;100440.86;;;20.99;38.64
69239;BME280;56349;51.816;-0.026;2023-02-22T07:08:12;100440.22;;;20.97;38.60
69239;BME280;56349;51.816;-0.026;2023-02-22T07:10:39;100439.75;;;20.97;38.55
69239;BME280;56349;51.816;-0.026;2023-02-22T07:13:05;100440.07;;;21.00;38.67
69239;BME280;56349;51.816;-0.026;2023-02-22T07:15:31;100442.50;;;21.04;38.93
69239;BME280;56349;51.816;-0.026;2023-02-22T07:17:55;100445.17;;;21.13;39.10
69239;BME280;56349;51.816;-0.026;2023-02-22T07:20:22;100446.71;;;21.31;39.11
69239;BME280;56349;51.816;-0.026;2023-02-22T07:22:48;100445.94;;;21.05;39.03
69239;BME280;56349;51.816;-0.026;2023-02-22T07:25:12;100450.03;;;21.36;38.77
69239;BME280;56349;51.816;-0.026;2023-02-22T07:27:39;100451.37;;;21.70;38.54
69239;BME280;56349;51.816;-0.026;2023-02-22T07:30:06;100461.24;;;22.07;38.10
69239;BME280;56349;51.816;-0.026;2023-02-22T07:32:30;100461.77;;;22.43;37.67
69239;BME280;56349;51.816;-0.026;2023-02-22T07:34:56;100465.60;;;22.78;37.27
69239;BME280;56349;51.816;-0.026;2023-02-22T07:37:22;100465.26;;;22.62;36.85
69239;BME280;56349;51.816;-0.026;2023-02-22T07:39:48;100468.88;;;22.95;36.43
69239;BME280;56349;51.816;-0.026;2023-02-22T07:42:16;100473.15;;;22.80;35.99
69239;BME280;56349;51.816;-0.026;2023-02-22T07:44:40;100470.04;;;23.36;35.62
69239;BME280;56349;51.816;-0.026;2023-02-22T07:47:06;100470.37;;;23.38;35.24
69239;BME280;56349;51.816;-0.026;2023-02-22T07:49:31;100472.04;;;23.66;34.85
69239;BME280;56349;51.816;-0.026;2023-02-22T07:51:57;100472.19;;;23.73;34.47
69239;BME280;56349;51.816;-0.026;2023-02-22T07:54:23;100472.10;;;23.97;34.05
69239;BME280;56349;51.816;-0.026;2023-02-22T07:56:49;100471.67;;;23.93;33.64
69239;BME280;56349;51.816;-0.026;2023-02-22T07:59:15;100471.93;;;24.11;33.27
69239;BME280;56349;51.816;-0.026;2023-02-22T08:01:41;100474.55;;;24.30;32.90
69239;BME280;56349;51.816;-0.026;2023-02-22T08:04:07;100473.01;;;24.46;32.57
69239;BME280;56349;51.816;-0.026;2023-02-22T08:06:32;100468.07;;;24.60;32.27
69239;BME280;56349;51.816;-0.026;2023-02-22T08:08:58;100460.79;;;24.47;31.99
69239;BME280;56349;51.816;-0.026;2023-02-22T08:11:25;100457.09;;;24.87;31.73
69239;BME280;56349;51.816;-0.026;2023-02-22T08:13:50;100457.92;;;24.73;31.48
69239;BME280;56349;51.816;-0.026;2023-02-22T08:16:16;100455.56;;;24.63;31.23
69239;BME280;56349;51.816;-0.026;2023-02-22T08:18:42;100453.58;;;24.96;31.02
69239;BME280;56349;51.816;-0.026;2023-02-22T08:21:08;100459.14;;;25.31;30.91
69239;BME280;56349;51.816;-0.026;2023-02-22T08:23:34;100456.66;;;25.17;30.71
69239;BME280;56349;51.816;-0.026;2023-02-22T08:26:04;100452.18;;;25.27;30.51
69239;BME280;56349;51.816;-0.026;2023-02-22T08:28:25;100454.55;;;25.15;30.35
69239;BME280;56349;51.816;-0.026;2023-02-22T08:30:51;100454.22;;;25.24;30.22
69239;BME280;56349;51.816;-0.026;2023-02-22T08:33:19;100453.32;;;25.31;30.11
69239;BME280;56349;51.816;-0.026;2023-02-22T08:35:43;100451.69;;;25.50;30.02
69239;BME280;56349;51.816;-0.026;2023-02-22T08:38:16;100455.77;;;25.45;29.92
69239;BME280;56349;51.816;-0.026;2023-02-22T08:40:35;100455.01;;;25.78;29.96
69239;BME280;56349;51.816;-0.026;2023-02-22T08:42:59;100457.08;;;25.86;29.72
69239;BME280;56349;51.816;-0.026;2023-02-22T08:45:25;100460.82;;;25.95;29.58
69239;BME280;56349;51.816;-0.026;2023-02-22T08:47:50;100460.07;;;25.85;29.41
69239;BME280;56349;51.816;-0.026;2023-02-22T08:50:17;100461.25;;;25.61;29.29
69239;BME280;56349;51.816;-0.026;2023-02-22T08:52:40;100459.64;;;25.89;29.18
69239;BME280;56349;51.816;-0.026;2023-02-22T08:55:07;100461.25;;;25.88;29.10
69239;BME280;56349;51.816;-0.026;2023-02-22T08:57:31;100459.86;;;26.11;29.01
69239;BME280;56349;51.816;-0.026;2023-02-22T08:59:57;100458.88;;;25.61;28.94
69239;BME280;56349;51.816;-0.026;2023-02-22T09:02:23;100459.31;;;26.13;28.84
69239;BME280;56349;51.816;-0.026;2023-02-22T09:04:50;100453.24;;;25.90;28.78
69239;BME280;56349;51.816;-0.026;2023-02-22T09:07:15;100454.91;;;26.10;28.73
69239;BME280;56349;51.816;-0.026;2023-02-22T09:09:42;100455.33;;;25.62;28.66
69239;BME280;56349;51.816;-0.026;2023-02-22T09:12:06;100454.05;;;25.65;28.59
69239;BME280;56349;51.816;-0.026;2023-02-22T09:14:31;100457.87;;;25.68;28.50
69239;BME280;56349;51.816;-0.026;2023-02-22T09:16:56;100459.45;;;25.67;28.45
69239;BME280;56349;51.816;-0.026;2023-02-22T09:19:22;100461.91;;;25.95;28.38
69239;BME280;56349;51.816;-0.026;2023-02-22T09:21:52;100464.49;;;25.71;28.29
69239;BME280;56349;51.816;-0.026;2023-02-22T09:24:14;100462.29;;;25.70;28.25
69239;BME280;56349;51.816;-0.026;2023-02-22T09:26:45;100465.85;;;25.95;28.23
69239;BME280;56349;51.816;-0.026;2023-02-22T09:29:06;100465.20;;;25.66;28.20
69239;BME280;56349;51.816;-0.026;2023-02-22T09:31:34;100464.70;;;25.68;28.14
69239;BME280;56349;51.816;-0.026;2023-02-22T09:33:57;100465.22;;;25.94;28.10
69239;BME280;56349;51.816;-0.026;2023-02-22T09:36:23;100464.75;;;25.71;28.06
69239;BME280;56349;51.816;-0.026;2023-02-22T09:38:49;100468.63;;;25.74;28.00
69239;BME280;56349;51.816;-0.026;2023-02-22T09:41:21;100469.41;;;25.76;27.97
69239;BME280;56349;51.816;-0.026;2023-02-22T09:43:46;100470.21;;;25.75;27.96
69239;BME280;56349;51.816;-0.026;2023-02-22T09:46:13;100469.22;;;25.76;27.92
69239;BME280;56349;51.816;-0.026;2023-02-22T09:48:33;100469.90;;;25.80;27.89
69239;BME280;56349;51.816;-0.026;2023-02-22T09:50:59;100471.05;;;26.15;27.86
69239;BME280;56349;51.816;-0.026;2023-02-22T09:53:26;100471.33;;;25.90;27.83
69239;BME280;56349;51.816;-0.026;2023-02-22T09:55:50;100473.18;;;25.94;27.76
69239;BME280;56349;51.816;-0.026;2023-02-22T09:58:19;100473.36;;;25.95;27.71
69239;BME280;56349;51.816;-0.026;2023-02-22T10:00:40;100475.60;;;26.21;27.69
69239;BME280;56349;51.816;-0.026;2023-02-22T10:03:16;100475.14;;;26.19;27.69
69239;BME280;56349;51.816;-0.026;2023-02-22T10:05:34;100473.81;;;25.90;27.67
69239;BME280;56349;51.816;-0.026;2023-02-22T10:07:59;100473.35;;;25.90;27.58
69239;BME280;56349;51.816;-0.026;2023-02-22T10:10:28;100471.68;;;25.86;27.57
69239;BME280;56349;51.816;-0.026;2023-02-22T10:12:53;100471.07;;;25.85;27.55
69239;BME280;56349;51.816;-0.026;2023-02-22T10:15:26;100471.48;;;25.80;27.51
69239;BME280;56349;51.816;-0.026;2023-02-22T10:17:45;100472.99;;;25.72;27.48
69239;BME280;56349;51.816;-0.026;2023-02-22T10:20:17;100472.80;;;25.85;27.49
69239;BME280;56349;51.816;-0.026;2023-02-22T10:22:38;100474.19;;;25.84;27.57
69239;BME280;56349;51.816;-0.026;2023-02-22T10:24:59;100471.93;;;25.39;27.70
69239;BME280;56349;51.816;-0.026;2023-02-22T10:27:21;100471.97;;;25.35;27.81
69239;BME280;56349;51.816;-0.026;2023-02-22T10:29:48;100472.27;;;25.28;27.99
69239;BME280;56349;51.816;-0.026;2023-02-22T10:32:16;100476.91;;;24.97;28.19
69239;BME280;56349;51.816;-0.026;2023-02-22T10:34:41;100474.94;;;24.91;28.43
69239;BME280;56349;51.816;-0.026;2023-02-22T10:37:13;100478.31;;;24.62;28.64
69239;BME280;56349;51.816;-0.026;2023-02-22T10:39:31;100477.99;;;24.31;28.87
69239;BME280;56349;51.816;-0.026;2023-02-22T10:41:57;100474.36;;;24.25;29.10
69239;BME280;56349;51.816;-0.026;2023-02-22T10:44:21;100476.51;;;24.18;29.33
69239;BME280;56349;51.816;-0.026;2023-02-22T10:46:46;100476.07;;;23.91;29.55
69239;BME280;56349;51.816;-0.026;2023-02-22T10:49:17;100478.38;;;23.64;29.78
69239;BME280;56349;51.816;-0.026;2023-02-22T10:51:37;100476.44;;;23.38;30.01
69239;BME280;56349;51.816;-0.026;2023-02-22T10:56:28;100481.08;;;23.41;30.41
69239;BME280;56349;51.816;-0.026;2023-02-22T10:58:56;100481.61;;;23.00;30.59
69239;BME280;56349;51.816;-0.026;2023-02-22T11:01:24;100476.69;;;23.01;30.80
69239;BME280;56349;51.816;-0.026;2023-02-22T11:03:55;100477.88;;;22.59;30.99
69239;BME280;56349;51.816;-0.026;2023-02-22T11:06:17;100476.73;;;22.62;31.16
69239;BME280;56349;51.816;-0.026;2023-02-22T11:08:36;100477.55;;;22.44;31.35
69239;BME280;56349;51.816;-0.026;2023-02-22T11:11:16;100478.62;;;22.79;31.51
69239;BME280;56349;51.816;-0.026;2023-02-22T11:13:30;100477.06;;;22.62;31.68
69239;BME280;56349;51.816;-0.026;2023-02-22T11:15:53;100476.63;;;22.25;31.84
69239;BME280;56349;51.816;-0.026;2023-02-22T11:18:24;100479.35;;;22.34;32.00
69239;BME280;56349;51.816;-0.026;2023-02-22T11:20:44;100476.44;;;22.19;32.15
69239;BME280;56349;51.816;-0.026;2023-02-22T11:23:10;100475.28;;;22.06;32.29
69239;BME280;56349;51.816;-0.026;2023-02-22T11:25:38;100472.44;;;21.91;32.46
69239;BME280;56349;51.816;-0.026;2023-02-22T11:28:07;100472.73;;;21.77;32.61
69239;BME280;56349;51.816;-0.026;2023-02-22T11:30:29;100472.30;;;21.63;32.79
69239;BME280;56349;51.816;-0.026;2023-02-22T11:32:54;100470.35;;;21.52;32.90
69239;BME280;56349;51.816;-0.026;2023-02-22T11:35:29;100469.62;;;21.63;33.05
69239;BME280;56349;51.816;-0.026;2023-02-22T11:37:43;100471.13;;;21.27;33.19
69239;BME280;56349;51.816;-0.026;2023-02-22T11:40:16;100474.32;;;21.16;33.33
69239;BME280;56349;51.816;-0.026;2023-02-22T11:42:34;100475.32;;;21.27;33.45
69239;BME280;56349;51.816;-0.026;2023-02-22T11:45:09;100475.78;;;20.93;33.59
69239;BME280;56349;51.816;-0.026;2023-02-22T11:47:26;100477.55;;;21.30;33.76
69239;BME280;56349;51.816;-0.026;2023-02-22T11:49:52;100479.48;;;20.94;33.86
69239;BME280;56349;51.816;-0.026;2023-02-22T11:52:24;100482.36;;;21.11;34.00
69239;BME280;56349;51.816;-0.026;2023-02-22T11:57:18;100482.27;;;20.64;34.25
69239;BME280;56349;51.816;-0.026;2023-02-22T11:59:38;100481.13;;;20.56;34.38
69239;BME280;56349;51.816;-0.026;2023-02-22T12:02:04;100482.61;;;20.79;34.48
69239;BME280;56349;51.816;-0.026;2023-02-22T12:04:36;100482.67;;;20.73;34.56
69239;BME280;56349;51.816;-0.026;2023-02-22T12:07:01;100485.09;;;20.66;34.70
69239;BME280;56349;51.816;-0.026;2023-02-22T12:09:20;100484.10;;;20.59;34.83
69239;BME280;56349;51.816;-0.026;2023-02-22T12:11:54;100483.52;;;20.56;34.92
69239;BME280;56349;51.816;-0.026;2023-02-22T12:14:19;100483.61;;;20.94;35.05
69239;BME280;56349;51.816;-0.026;2023-02-22T12:16:44;100486.75;;;20.41;35.24
69239;BME280;56349;51.816;-0.026;2023-02-22T12:19:10;100485.63;;;20.58;35.34
69239;BME280;56349;51.816;-0.026;2023-02-22T12:21:26;100486.00;;;20.33;35.46
69239;BME280;56349;51.816;-0.026;2023-02-22T12:23:55;100482.58;;;20.29;35.54
69239;BME280;56349;51.816;-0.026;2023-02-22T12:26:22;100482.45;;;20.21;35.68
69239;BME280;56349;51.816;-0.026;2023-02-22T12:28:45;100480.89;;;20.16;35.84
69239;BME280;56349;51.816;-0.026;2023-02-22T12:31:15;100478.56;;;20.12;35.99
69239;BME280;56349;51.816;-0.026;2023-02-22T12:33:43;100477.15;;;20.11;36.20
69239;BME280;56349;51.816;-0.026;2023-02-22T12:35:59;100476.64;;;20.12;36.38
69239;BME280;56349;51.816;-0.026;2023-02-22T12:38:31;100479.02;;;20.57;36.60
69239;BME280;56349;51.816;-0.026;2023-02-22T12:40:55;100477.31;;;20.17;36.88
69239;BME280;56349;51.816;-0.026;2023-02-22T12:43:19;100475.21;;;20.52;37.04
69239;BME280;56349;51.816;-0.026;2023-02-22T12:45:45;100475.50;;;20.49;36.98